createdAt,value
2018-08-07T00:00:55.981Z,20.92
2018-08-07T00:01:56.191Z,21.03
2018-08-07T00:02:56.380Z,21.01
2018-08-07T00:03:56.562Z,21.05
2018-08-07T00:04:56.734Z,21.08
2018-08-07T00:05:56.922Z,21.01
2018-08-07T00:06:57.096Z,20.90
2018-08-07T00:07:57.291Z,20.98
2018-08-07T00:08:57.460Z,20.92
2018-08-07T00:09:57.667Z,20.98
2018-08-07T00:10:57.859Z,21.04
2018-08-07T00:11:58.043Z,20.97
2018-08-07T00:12:58.237Z,20.95
2018-08-07T00:13:58.438Z,21.03
2018-08-07T00:14:58.652Z,21.01
2018-08-07T00:15:58.844Z,21.01
2018-08-07T00:16:59.042Z,21.03
2018-08-07T00:17:59.230Z,21.00
2018-08-07T00:18:59.416Z,20.92
2018-08-07T00:19:59.591Z,20.95
2018-08-07T00:20:59.780Z,20.95
2018-08-07T00:21:59.959Z,20.86
2018-08-07T00:23:00.149Z,20.86
2018-08-07T00:24:00.331Z,20.71
2018-08-07T00:25:00.509Z,20.71
2018-08-07T00:26:00.684Z,20.58
2018-08-07T00:27:00.902Z,20.58
2018-08-07T00:28:01.086Z,20.56
2018-08-07T00:30:46.493Z,20.49
2018-08-07T00:31:44.131Z,20.39
2018-08-07T00:32:44.324Z,20.34
2018-08-07T00:33:44.516Z,20.39
2018-08-07T00:34:45.404Z,20.36
2018-08-07T00:35:44.871Z,20.32
2018-08-07T00:36:45.089Z,20.26
2018-08-07T00:37:45.345Z,20.25
2018-08-07T00:38:45.468Z,20.26
2018-08-07T00:39:45.659Z,20.26
2018-08-07T00:40:45.879Z,20.18
2018-08-07T00:41:46.065Z,20.17
2018-08-07T00:42:46.266Z,20.14
2018-08-07T00:43:46.468Z,20.05
2018-08-07T00:44:46.661Z,20.17
2018-08-07T00:45:46.839Z,20.12
2018-08-07T00:46:47.080Z,20.12
2018-08-07T00:47:47.260Z,20.02
2018-08-07T00:48:47.443Z,20.05
2018-08-07T00:49:47.646Z,19.99
2018-08-07T00:50:47.826Z,19.96
2018-08-07T00:51:48.016Z,19.93
2018-08-07T00:52:48.196Z,19.96
2018-08-07T00:53:48.394Z,19.97
2018-08-07T00:54:48.572Z,19.89
2018-08-07T00:55:48.767Z,19.90
2018-08-07T00:56:48.955Z,19.89
2018-08-07T00:57:49.143Z,19.93
2018-08-07T00:58:49.320Z,19.87
2018-08-07T00:59:49.498Z,19.94
2018-08-07T01:00:49.667Z,19.92
2018-08-07T01:01:49.862Z,19.87
2018-08-07T01:02:50.044Z,19.89
2018-08-07T01:03:50.224Z,19.92
2018-08-07T01:04:50.402Z,19.81
2018-08-07T01:05:50.637Z,19.77
2018-08-07T01:06:50.822Z,19.82
2018-08-07T01:07:51.003Z,19.86
2018-08-07T01:08:51.179Z,19.87
2018-08-07T01:09:51.366Z,19.82
2018-08-07T01:10:51.554Z,19.84
2018-08-07T01:11:51.723Z,19.81
2018-08-07T01:12:51.910Z,19.71
2018-08-07T01:13:52.093Z,19.70
2018-08-07T01:14:52.277Z,19.67
2018-08-07T01:15:52.462Z,19.70
2018-08-07T01:16:52.655Z,19.50
2018-08-07T01:17:52.830Z,19.60
2018-08-07T01:18:53.009Z,19.56
2018-08-07T01:19:53.192Z,19.53
2018-08-07T01:20:53.405Z,19.47
2018-08-07T01:21:53.586Z,19.41
2018-08-07T01:22:53.781Z,19.45
2018-08-07T01:23:53.966Z,19.31
2018-08-07T01:24:54.148Z,19.35
2018-08-07T01:25:54.324Z,19.39
2018-08-07T01:26:54.572Z,19.30
2018-08-07T01:27:54.710Z,19.27
2018-08-07T01:28:54.902Z,19.44
2018-08-07T01:29:55.090Z,19.34
2018-08-07T01:30:55.279Z,19.30
2018-08-07T01:31:55.469Z,19.30
2018-08-07T01:32:55.655Z,19.35
2018-08-07T01:33:55.824Z,19.24
2018-08-07T01:34:55.998Z,19.22
2018-08-07T01:35:56.191Z,19.22
2018-08-07T01:36:56.366Z,19.23
2018-08-07T01:37:56.566Z,19.27
2018-08-07T01:38:56.738Z,19.19
2018-08-07T01:39:56.923Z,19.20
2018-08-07T01:40:57.102Z,19.17
2018-08-07T01:41:57.282Z,19.09
2018-08-07T01:42:57.479Z,19.12
2018-08-07T01:43:57.670Z,19.07
2018-08-07T01:44:57.843Z,19.08
2018-08-07T01:45:58.026Z,19.09
2018-08-07T01:46:58.205Z,19.12
2018-08-07T01:47:58.385Z,19.09
2018-08-07T01:48:58.555Z,19.05
2018-08-07T01:49:58.741Z,19.01
2018-08-07T01:50:58.928Z,18.98
2018-08-07T01:51:59.108Z,18.98
2018-08-07T01:52:59.280Z,18.89
2018-08-07T01:53:59.456Z,18.93
2018-08-07T01:54:59.639Z,18.91
2018-08-07T01:55:59.821Z,18.94
2018-08-07T01:57:00.008Z,18.89
2018-08-07T01:58:00.181Z,18.97
2018-08-07T01:59:00.395Z,18.97
2018-08-07T02:00:00.575Z,18.94
2018-08-07T02:01:00.781Z,18.94
2018-08-07T02:02:00.972Z,18.98
2018-08-07T02:03:01.180Z,18.93
2018-08-07T02:04:01.376Z,18.89
2018-08-07T02:05:01.544Z,18.86
2018-08-07T02:06:01.723Z,18.89
2018-08-07T02:07:01.898Z,18.86
2018-08-07T02:08:02.075Z,18.86
2018-08-07T02:09:02.294Z,18.93
2018-08-07T02:10:02.476Z,18.83
2018-08-07T02:11:02.644Z,18.85
2018-08-07T02:12:02.844Z,18.85
2018-08-07T02:13:03.032Z,18.82
2018-08-07T02:14:03.234Z,18.93
2018-08-07T02:15:03.418Z,18.82
2018-08-07T02:16:03.582Z,18.86
2018-08-07T02:17:03.757Z,18.86
2018-08-07T02:18:03.941Z,18.81
2018-08-07T02:19:04.134Z,18.79
2018-08-07T02:20:04.316Z,18.83
2018-08-07T02:21:04.501Z,18.85
2018-08-07T02:22:04.693Z,18.81
2018-08-07T02:23:04.883Z,18.81
2018-08-07T02:24:05.054Z,18.82
2018-08-07T02:25:05.226Z,18.83
2018-08-07T02:26:05.397Z,18.81
2018-08-07T02:27:05.600Z,18.76
2018-08-07T02:28:05.772Z,18.70
2018-08-07T02:29:05.955Z,18.78
2018-08-07T02:30:06.139Z,18.75
2018-08-07T02:31:06.325Z,18.70
2018-08-07T02:32:06.510Z,18.76
2018-08-07T02:33:06.688Z,18.79
2018-08-07T02:34:07.429Z,18.82
2018-08-07T02:35:07.051Z,18.68
2018-08-07T02:36:07.225Z,18.79
2018-08-07T02:37:07.418Z,18.76
2018-08-07T02:38:07.604Z,18.83
2018-08-07T02:39:07.793Z,18.79
2018-08-07T02:40:07.971Z,18.79
2018-08-07T02:41:08.156Z,18.78
2018-08-07T02:42:08.322Z,18.76
2018-08-07T02:43:08.536Z,18.71
2018-08-07T02:44:08.720Z,18.81
2018-08-07T02:45:08.908Z,18.70
2018-08-07T02:46:09.099Z,18.71
2018-08-07T02:47:09.302Z,18.75
2018-08-07T02:48:09.486Z,18.68
2018-08-07T02:49:09.660Z,18.74
2018-08-07T02:50:09.844Z,18.64
2018-08-07T02:51:10.019Z,18.61
2018-08-07T02:52:10.252Z,18.60
2018-08-07T02:53:10.436Z,18.57
2018-08-07T02:54:10.602Z,18.49
2018-08-07T02:55:10.803Z,18.54
2018-08-07T02:56:10.997Z,18.52
2018-08-07T02:57:11.186Z,18.48
2018-08-07T02:58:11.375Z,18.51
2018-08-07T02:59:11.555Z,18.46
2018-08-07T03:00:11.741Z,18.41
2018-08-07T03:01:11.927Z,18.38
2018-08-07T03:02:12.104Z,18.34
2018-08-07T03:04:54.992Z,18.31
2018-08-07T03:05:55.173Z,18.34
2018-08-07T03:06:55.361Z,18.33
2018-08-07T03:07:55.531Z,18.31
2018-08-07T03:08:55.724Z,18.33
2018-08-07T03:09:55.882Z,18.27
2018-08-07T03:10:56.059Z,18.33
2018-08-07T03:11:56.280Z,18.33
2018-08-07T03:12:56.516Z,18.48
2018-08-07T03:13:56.660Z,18.39
2018-08-07T03:14:56.841Z,18.41
2018-08-07T03:15:57.031Z,18.48
2018-08-07T03:16:57.213Z,18.31
2018-08-07T03:17:57.413Z,18.43
2018-08-07T03:18:57.584Z,18.46
2018-08-07T03:19:57.802Z,18.34
2018-08-07T03:20:57.955Z,18.27
2018-08-07T03:21:58.190Z,18.27
2018-08-07T03:22:58.373Z,18.24
2018-08-07T03:23:58.559Z,18.24
2018-08-07T03:24:58.755Z,18.39
2018-08-07T03:25:58.955Z,18.34
2018-08-07T03:26:59.122Z,18.23
2018-08-07T03:27:59.300Z,18.24
2018-08-07T03:28:59.495Z,18.20
2018-08-07T03:29:59.680Z,18.20
2018-08-07T03:30:59.869Z,18.18
2018-08-07T03:32:00.041Z,18.17
2018-08-07T03:33:00.225Z,18.20
2018-08-07T03:35:43.594Z,18.18
2018-08-07T03:36:43.297Z,18.17
2018-08-07T03:37:43.460Z,18.11
2018-08-07T03:38:44.525Z,18.09
2018-08-07T03:39:43.821Z,18.02
2018-08-07T03:40:44.001Z,17.97
2018-08-07T03:41:44.185Z,18.06
2018-08-07T03:42:44.356Z,18.03
2018-08-07T03:43:44.550Z,17.96
2018-08-07T03:44:44.711Z,18.02
2018-08-07T03:45:44.904Z,18.03
2018-08-07T03:46:45.072Z,18.13
2018-08-07T03:47:45.313Z,17.99
2018-08-07T03:48:45.380Z,17.97
2018-08-07T03:49:45.560Z,18.01
2018-08-07T03:50:45.760Z,18.02
2018-08-07T03:51:45.935Z,18.03
2018-08-07T03:52:46.121Z,18.05
2018-08-07T03:53:46.282Z,18.11
2018-08-07T03:54:46.501Z,18.05
2018-08-07T03:55:46.682Z,18.11
2018-08-07T03:56:46.971Z,18.09
2018-08-07T03:57:47.043Z,18.13
2018-08-07T03:58:47.226Z,18.01
2018-08-07T03:59:47.411Z,17.97
2018-08-07T04:00:47.594Z,18.05
2018-08-07T04:01:47.777Z,17.97
2018-08-07T04:02:47.960Z,17.97
2018-08-07T04:03:48.137Z,18.12
2018-08-07T04:04:48.338Z,18.05
2018-08-07T04:05:48.500Z,18.09
2018-08-07T04:06:48.683Z,18.11
2018-08-07T04:07:48.855Z,18.17
2018-08-07T04:08:49.030Z,18.13
2018-08-07T04:09:49.201Z,18.12
2018-08-07T04:10:49.385Z,18.18
2018-08-07T04:11:49.561Z,18.18
2018-08-07T04:12:50.625Z,18.17
2018-08-07T04:13:49.892Z,18.23
2018-08-07T04:14:50.134Z,18.18
2018-08-07T04:15:50.317Z,18.17
2018-08-07T04:16:50.501Z,18.28
2018-08-07T04:17:50.723Z,18.20
2018-08-07T04:18:50.911Z,18.18
2018-08-07T04:19:51.095Z,18.15
2018-08-07T04:20:51.270Z,18.12
2018-08-07T04:21:51.452Z,18.15
2018-08-07T04:22:51.638Z,18.26
2018-08-07T04:23:51.869Z,18.28
2018-08-07T04:24:52.062Z,18.23
2018-08-07T04:25:52.236Z,18.31
2018-08-07T04:26:52.445Z,18.28
2018-08-07T04:27:52.627Z,18.31
2018-08-07T04:28:52.803Z,18.24
2018-08-07T04:29:52.976Z,18.33
2018-08-07T04:30:53.165Z,18.33
2018-08-07T04:31:53.347Z,18.41
2018-08-07T04:32:53.526Z,18.43
2018-08-07T04:33:53.706Z,18.43
2018-08-07T04:34:53.882Z,18.52
2018-08-07T04:35:54.090Z,18.43
2018-08-07T04:36:54.238Z,18.51
2018-08-07T04:37:54.415Z,18.57
2018-08-07T04:38:54.596Z,18.61
2018-08-07T04:39:54.769Z,18.56
2018-08-07T04:40:54.968Z,18.48
2018-08-07T04:41:55.196Z,18.63
2018-08-07T04:42:55.392Z,18.60
2018-08-07T04:43:55.595Z,18.58
2018-08-07T04:44:55.765Z,18.67
2018-08-07T04:45:56.009Z,18.75
2018-08-07T04:46:56.159Z,18.70
2018-08-07T04:47:56.347Z,18.56
2018-08-07T04:48:56.553Z,18.68
2018-08-07T04:49:56.711Z,18.67
2018-08-07T04:50:56.896Z,18.67
2018-08-07T04:51:57.170Z,18.75
2018-08-07T04:52:57.262Z,18.81
2018-08-07T04:53:57.429Z,18.89
2018-08-07T04:54:57.617Z,19.05
2018-08-07T04:55:57.797Z,19.37
2018-08-07T04:56:57.978Z,19.42
2018-08-07T04:57:58.199Z,19.44
2018-08-07T04:58:58.327Z,19.68
2018-08-07T04:59:58.516Z,19.75
2018-08-07T05:00:58.690Z,20.05
2018-08-07T05:01:58.881Z,20.14
2018-08-07T05:02:59.066Z,20.11
2018-08-07T05:03:59.273Z,20.26
2018-08-07T05:04:59.426Z,20.22
2018-08-07T05:05:59.619Z,20.23
2018-08-07T05:06:59.804Z,20.25
2018-08-07T05:07:59.985Z,20.12
2018-08-07T05:09:00.152Z,20.12
2018-08-07T05:10:00.374Z,20.17
2018-08-07T05:11:00.530Z,19.99
2018-08-07T05:12:00.739Z,19.89
2018-08-07T05:13:00.910Z,19.78
2018-08-07T05:14:01.106Z,19.84
2018-08-07T05:15:01.284Z,19.82
2018-08-07T05:16:01.462Z,19.81
2018-08-07T05:17:01.644Z,19.96
2018-08-07T05:18:01.837Z,19.92
2018-08-07T05:19:02.019Z,20.17
2018-08-07T05:20:02.248Z,20.55
2018-08-07T05:21:02.452Z,20.92
2018-08-07T05:22:02.626Z,21.10
2018-08-07T05:24:45.545Z,21.19
2018-08-07T05:25:45.728Z,21.26
2018-08-07T05:26:45.914Z,21.10
2018-08-07T05:27:46.106Z,20.95
2018-08-07T05:28:46.303Z,20.93
2018-08-07T05:29:46.527Z,21.00
2018-08-07T05:30:46.672Z,21.03
2018-08-07T05:31:46.855Z,21.01
2018-08-07T05:32:47.030Z,21.22
2018-08-07T05:33:47.226Z,21.43
2018-08-07T05:34:47.382Z,21.32
2018-08-07T05:35:47.581Z,21.22
2018-08-07T05:36:47.745Z,21.19
2018-08-07T05:37:47.927Z,21.47
2018-08-07T05:38:48.115Z,21.93
2018-08-07T05:39:48.300Z,22.04
2018-08-07T05:40:48.509Z,22.07
2018-08-07T05:41:48.665Z,21.98
2018-08-07T05:42:48.926Z,22.30
2018-08-07T05:43:49.047Z,22.74
2018-08-07T05:44:49.221Z,22.95
2018-08-07T05:45:49.421Z,23.22
2018-08-07T05:46:49.615Z,23.59
2018-08-07T05:47:49.806Z,24.06
2018-08-07T05:48:50.000Z,24.28
2018-08-07T05:49:50.178Z,24.48
2018-08-07T05:50:50.780Z,24.81
2018-08-07T05:51:50.588Z,25.01
2018-08-07T05:52:50.795Z,25.01
2018-08-07T05:53:50.963Z,25.09
2018-08-07T05:54:51.143Z,25.18
2018-08-07T05:55:51.331Z,25.46
2018-08-07T05:56:51.515Z,25.71
2018-08-07T05:57:51.737Z,25.96
2018-08-07T05:58:51.951Z,26.04
2018-08-07T05:59:52.097Z,26.07
2018-08-07T06:00:52.302Z,25.66
2018-08-07T06:01:52.490Z,24.91
2018-08-07T06:02:52.680Z,24.82
2018-08-07T06:03:52.879Z,25.11
2018-08-07T06:04:53.057Z,25.19
2018-08-07T06:05:53.247Z,24.97
2018-08-07T06:06:53.427Z,25.34
2018-08-07T06:07:53.625Z,25.06
2018-08-07T06:08:53.824Z,25.28
2018-08-07T06:09:54.023Z,25.30
2018-08-07T06:10:54.255Z,25.31
2018-08-07T06:11:54.388Z,25.15
2018-08-07T06:12:54.569Z,25.12
2018-08-07T06:13:54.759Z,25.51
2018-08-07T06:14:54.972Z,25.49
2018-08-07T06:15:55.174Z,25.86
2018-08-07T06:16:55.364Z,26.16
2018-08-07T06:17:55.569Z,26.21
2018-08-07T06:18:55.761Z,26.36
2018-08-07T06:19:55.955Z,26.05
2018-08-07T06:20:56.145Z,25.93
2018-08-07T06:21:56.336Z,25.89
2018-08-07T06:22:56.553Z,25.85
2018-08-07T06:23:56.702Z,25.86
2018-08-07T06:24:56.886Z,25.93
2018-08-07T06:25:57.093Z,25.63
2018-08-07T06:26:57.282Z,25.81
2018-08-07T06:27:57.460Z,26.24
2018-08-07T06:28:57.689Z,26.67
2018-08-07T06:29:57.887Z,26.58
2018-08-07T06:30:58.090Z,26.88
2018-08-07T06:31:58.289Z,27.05
2018-08-07T06:32:58.468Z,27.40
2018-08-07T06:33:58.665Z,27.31
2018-08-07T06:34:58.863Z,27.60
2018-08-07T06:35:59.073Z,27.75
2018-08-07T06:36:59.250Z,28.03
2018-08-07T06:37:59.456Z,28.10
2018-08-07T06:38:59.650Z,27.68
2018-08-07T06:39:59.851Z,27.87
2018-08-07T06:41:00.045Z,27.50
2018-08-07T06:42:00.233Z,27.72
2018-08-07T06:43:00.455Z,27.94
2018-08-07T06:44:00.614Z,27.58
2018-08-07T06:45:00.808Z,27.73
2018-08-07T06:46:01.004Z,27.91
2018-08-07T06:47:01.207Z,28.12
2018-08-07T06:48:01.454Z,28.43
2018-08-07T06:49:01.616Z,28.40
2018-08-07T06:50:01.780Z,28.62
2018-08-07T06:51:01.973Z,28.90
2018-08-07T06:52:02.161Z,28.32
2018-08-07T06:53:02.374Z,28.01
2018-08-07T06:54:02.579Z,28.47
2018-08-07T06:55:02.781Z,28.59
2018-08-07T06:56:03.529Z,28.80
2018-08-07T06:57:03.231Z,29.15
2018-08-07T06:58:03.411Z,29.06
2018-08-07T06:59:03.631Z,28.83
2018-08-07T07:00:03.815Z,29.06
2018-08-07T07:01:04.019Z,29.36
2018-08-07T07:02:04.217Z,29.50
2018-08-07T07:03:04.413Z,29.47
2018-08-07T07:04:04.606Z,29.44
2018-08-07T07:05:04.804Z,29.49
2018-08-07T07:06:04.989Z,29.65
2018-08-07T07:07:05.180Z,29.61
2018-08-07T07:08:05.374Z,29.28
2018-08-07T07:09:05.594Z,29.50
2018-08-07T07:10:05.771Z,29.70
2018-08-07T07:11:05.992Z,29.81
2018-08-07T07:12:06.184Z,29.63
2018-08-07T07:13:06.380Z,29.80
2018-08-07T07:14:06.596Z,29.65
2018-08-07T07:15:06.796Z,29.47
2018-08-07T07:16:06.985Z,29.63
2018-08-07T07:17:07.185Z,29.92
2018-08-07T07:18:07.385Z,30.22
2018-08-07T07:19:07.580Z,30.33
2018-08-07T07:20:07.775Z,30.55
2018-08-07T07:21:07.977Z,30.68
2018-08-07T07:22:08.170Z,30.99
2018-08-07T07:23:08.384Z,31.02
2018-08-07T07:24:08.551Z,31.17
2018-08-07T07:25:08.752Z,31.23
2018-08-07T07:26:08.943Z,31.10
2018-08-07T07:27:09.161Z,31.42
2018-08-07T07:28:09.361Z,31.44
2018-08-07T07:29:09.555Z,31.41
2018-08-07T07:30:11.546Z,31.70
2018-08-07T07:31:09.985Z,31.44
2018-08-07T07:32:10.208Z,30.90
2018-08-07T07:33:10.395Z,31.27
2018-08-07T07:34:10.602Z,31.46
2018-08-07T07:35:10.785Z,31.64
2018-08-07T07:36:10.996Z,31.24
2018-08-07T07:37:11.179Z,30.83
2018-08-07T07:38:11.401Z,30.75
2018-08-07T07:39:11.594Z,31.08
2018-08-07T07:40:11.800Z,31.45
2018-08-07T07:41:12.013Z,31.30
2018-08-07T07:42:12.232Z,31.68
2018-08-07T07:43:12.432Z,31.71
2018-08-07T07:44:12.621Z,32.01
2018-08-07T07:45:12.818Z,32.06
2018-08-07T07:46:13.024Z,32.01
2018-08-07T07:47:13.233Z,31.67
2018-08-07T07:48:13.432Z,31.91
2018-08-07T07:49:13.635Z,31.67
2018-08-07T07:50:13.839Z,31.30
2018-08-07T07:51:14.031Z,31.59
2018-08-07T07:52:14.227Z,31.75
2018-08-07T07:53:14.416Z,31.98
2018-08-07T07:54:14.617Z,31.84
2018-08-07T07:55:14.815Z,31.98
2018-08-07T07:56:15.009Z,31.52
2018-08-07T07:57:15.196Z,31.59
2018-08-07T07:58:15.377Z,31.39
2018-08-07T07:59:15.585Z,31.24
2018-08-07T08:00:15.814Z,31.02
2018-08-07T08:01:15.962Z,31.10
2018-08-07T08:02:16.165Z,31.11
2018-08-07T08:03:16.351Z,31.39
2018-08-07T08:04:16.553Z,31.24
2018-08-07T08:05:16.858Z,31.11
2018-08-07T08:06:16.926Z,31.10
2018-08-07T08:07:17.129Z,30.82
2018-08-07T08:08:17.328Z,30.95
2018-08-07T08:09:17.528Z,30.89
2018-08-07T08:10:17.720Z,30.75
2018-08-07T08:11:17.915Z,30.60
2018-08-07T08:12:18.099Z,30.33
2018-08-07T08:13:18.299Z,29.95
2018-08-07T08:14:18.496Z,29.80
2018-08-07T08:15:18.695Z,29.83
2018-08-07T08:16:18.888Z,29.56
2018-08-07T08:17:19.078Z,29.52
2018-08-07T08:18:19.296Z,29.78
2018-08-07T08:19:19.492Z,29.78
2018-08-07T08:22:02.881Z,29.96
2018-08-07T08:23:02.576Z,30.07
2018-08-07T08:24:02.747Z,29.95
2018-08-07T08:25:02.959Z,29.84
2018-08-07T08:26:03.155Z,29.70
2018-08-07T08:27:03.363Z,29.86
2018-08-07T08:28:04.310Z,29.86
2018-08-07T08:29:03.773Z,29.92
2018-08-07T08:30:04.068Z,30.07
2018-08-07T08:31:04.096Z,30.30
2018-08-07T08:32:04.297Z,30.52
2018-08-07T08:33:04.525Z,30.56
2018-08-07T08:34:04.704Z,30.60
2018-08-07T08:35:04.942Z,30.43
2018-08-07T08:36:05.097Z,30.20
2018-08-07T08:37:05.278Z,30.29
2018-08-07T08:38:05.482Z,30.59
2018-08-07T08:39:05.656Z,30.77
2018-08-07T08:40:05.840Z,30.92
2018-08-07T08:50:10.070Z,32.27
2018-08-07T08:51:09.081Z,32.57
2018-08-07T08:52:00.050Z,32.58
2018-08-07T08:53:00.451Z,32.54
2018-08-07T08:54:01.141Z,32.41
2018-08-07T08:58:41.503Z,32.19
2018-08-07T08:59:30.480Z,32.26
2018-08-07T09:00:30.491Z,32.60
2018-08-07T09:01:29.846Z,32.77
2018-08-07T09:02:29.923Z,33.22
2018-08-07T09:03:30.133Z,33.35
2018-08-07T09:04:32.029Z,33.22
2018-08-07T09:05:30.507Z,33.06
2018-08-07T09:06:30.710Z,33.04
2018-08-07T09:07:30.889Z,33.22
2018-08-07T09:08:31.136Z,33.49
2018-08-07T09:09:31.336Z,33.66
2018-08-07T09:10:31.592Z,33.85
2018-08-07T09:11:31.823Z,34.00
2018-08-07T09:12:32.040Z,33.86
2018-08-07T09:13:32.296Z,33.76
2018-08-07T09:14:32.446Z,33.88
2018-08-07T09:15:32.642Z,33.93
2018-08-07T09:16:33.498Z,33.93
2018-08-07T09:17:33.084Z,34.04
2018-08-07T09:18:33.376Z,33.95
2018-08-07T09:19:33.525Z,33.81
2018-08-07T09:20:33.712Z,33.91
2018-08-07T09:21:33.895Z,34.04
2018-08-07T09:22:34.098Z,33.51
2018-08-07T09:23:34.287Z,33.54
2018-08-07T09:24:34.490Z,33.35
2018-08-07T09:25:34.743Z,33.14
2018-08-07T09:26:34.861Z,32.99
2018-08-07T09:27:35.171Z,33.16
2018-08-07T09:28:35.280Z,33.33
2018-08-07T09:29:35.536Z,33.52
2018-08-07T09:30:35.749Z,33.42
2018-08-07T09:31:35.935Z,33.62
2018-08-07T09:32:36.148Z,33.64
2018-08-07T09:33:36.351Z,33.73
2018-08-07T09:34:36.554Z,33.93
2018-08-07T09:35:36.685Z,34.11
2018-08-07T09:36:36.870Z,34.28
2018-08-07T09:37:37.053Z,34.66
2018-08-07T09:38:37.255Z,34.64
2018-08-07T09:39:37.511Z,34.67
2018-08-07T09:40:37.670Z,34.37
2018-08-07T09:41:37.840Z,34.19
2018-08-07T09:42:38.025Z,34.00
2018-08-07T09:43:38.206Z,34.08
2018-08-07T09:44:38.407Z,34.06
2018-08-07T09:45:38.612Z,34.20
2018-08-07T09:46:38.853Z,34.67
2018-08-07T09:47:38.995Z,34.67
2018-08-07T09:48:39.179Z,34.86
2018-08-07T09:49:39.467Z,34.85
2018-08-07T09:50:39.627Z,34.64
2018-08-07T09:51:39.891Z,34.66
2018-08-07T09:52:40.053Z,34.67
2018-08-07T09:53:40.290Z,34.67
2018-08-07T09:54:40.460Z,34.62
2018-08-07T09:55:40.705Z,34.62
2018-08-07T09:56:40.884Z,34.53
2018-08-07T09:57:41.097Z,34.62
2018-08-07T09:58:41.367Z,34.98
2018-08-07T09:59:41.501Z,35.20
2018-08-07T10:00:41.693Z,35.26
2018-08-07T10:01:41.896Z,35.20
2018-08-07T10:02:42.082Z,35.32
2018-08-07T10:03:42.304Z,35.35
2018-08-07T10:04:42.501Z,35.24
2018-08-07T10:05:42.755Z,35.19
2018-08-07T10:06:42.889Z,35.19
2018-08-07T10:07:43.079Z,35.04
2018-08-07T10:08:43.326Z,34.95
2018-08-07T10:09:43.546Z,35.09
2018-08-07T10:10:44.513Z,35.28
2018-08-07T10:11:43.959Z,35.51
2018-08-07T10:12:44.175Z,35.54
2018-08-07T10:13:44.398Z,35.57
2018-08-07T10:14:44.597Z,35.68
2018-08-07T10:15:44.789Z,35.85
2018-08-07T10:16:44.994Z,35.75
2018-08-07T10:17:45.224Z,35.47
2018-08-07T10:18:45.390Z,35.19
2018-08-07T10:19:45.621Z,35.14
2018-08-07T10:20:45.815Z,35.23
2018-08-07T10:21:46.024Z,35.35
2018-08-07T10:22:46.223Z,35.36
2018-08-07T10:23:46.438Z,35.50
2018-08-07T10:24:46.631Z,35.65
2018-08-07T10:25:46.842Z,35.50
2018-08-07T10:26:47.033Z,35.34
2018-08-07T10:27:47.247Z,35.44
2018-08-07T10:28:47.476Z,35.51
2018-08-07T10:31:30.889Z,35.69
2018-08-07T10:32:30.607Z,35.68
2018-08-07T10:33:30.807Z,35.72
2018-08-07T10:34:30.996Z,35.57
2018-08-07T10:35:31.193Z,35.34
2018-08-07T10:36:31.454Z,35.28
2018-08-07T10:37:31.590Z,35.34
2018-08-07T10:38:31.803Z,35.48
2018-08-07T10:39:32.032Z,35.63
2018-08-07T10:40:32.279Z,35.66
2018-08-07T10:41:33.922Z,35.56
2018-08-07T10:42:32.642Z,35.56
2018-08-07T10:43:33.556Z,35.53
2018-08-07T10:44:33.114Z,35.50
2018-08-07T10:45:33.987Z,35.72
2018-08-07T10:46:34.417Z,35.88
2018-08-07T10:47:35.078Z,36.11
2018-08-07T10:48:34.805Z,36.03
2018-08-07T10:49:34.869Z,36.29
2018-08-07T10:50:35.397Z,36.33
2018-08-07T10:51:35.406Z,36.48
2018-08-07T10:52:35.068Z,36.66
2018-08-07T10:53:36.406Z,36.82
2018-08-07T10:54:35.272Z,36.76
2018-08-07T10:55:36.574Z,36.44
2018-08-07T10:56:35.663Z,36.26
2018-08-07T10:57:35.825Z,36.30
2018-08-07T10:58:35.993Z,36.26
2018-08-07T10:59:36.203Z,36.20
2018-08-07T11:00:36.423Z,36.32
2018-08-07T11:01:37.381Z,36.61
2018-08-07T11:02:39.505Z,36.83
2018-08-07T11:03:40.313Z,37.04
2018-08-07T11:04:38.956Z,37.13
2018-08-07T11:05:37.866Z,37.17
2018-08-07T11:06:38.372Z,37.30
2018-08-07T11:07:37.713Z,37.23
2018-08-07T11:08:38.815Z,37.20
2018-08-07T11:09:38.085Z,37.16
2018-08-07T11:10:39.312Z,37.19
2018-08-07T11:11:38.589Z,37.20
2018-08-07T11:12:39.314Z,37.37
2018-08-07T11:14:01.413Z,37.39
2018-08-07T11:17:48.336Z,37.15
2018-08-07T11:18:41.352Z,37.04
2018-08-07T11:19:45.972Z,36.97
2018-08-07T11:20:42.914Z,37.00
2018-08-07T11:21:58.510Z,37.07
2018-08-07T11:23:02.414Z,37.12
2018-08-07T11:23:40.897Z,37.13
2018-08-07T11:24:43.119Z,36.86
2018-08-07T11:25:42.353Z,36.38
2018-08-07T11:26:44.017Z,36.22
2018-08-07T11:28:42.915Z,36.23
2018-08-07T11:29:42.143Z,36.20
2018-08-07T11:30:42.341Z,36.27
2018-08-07T11:31:42.559Z,36.56
2018-08-07T11:32:42.890Z,36.61
2018-08-07T11:33:42.963Z,36.94
2018-08-07T11:34:43.179Z,37.05
2018-08-07T11:35:43.410Z,36.79
2018-08-07T11:36:44.354Z,36.66
2018-08-07T11:37:44.936Z,36.41
2018-08-07T11:38:44.081Z,36.14
2018-08-07T11:39:44.320Z,36.04
2018-08-07T11:40:45.345Z,35.83
2018-08-07T11:41:44.692Z,36.04
2018-08-07T11:42:44.993Z,36.13
2018-08-07T11:43:47.387Z,36.25
2018-08-07T11:44:45.320Z,36.69
2018-08-07T11:45:45.524Z,36.76
2018-08-07T11:46:45.763Z,37.08
2018-08-07T11:47:47.111Z,36.98
2018-08-07T11:48:46.857Z,37.20
2018-08-07T11:49:46.965Z,37.08
2018-08-07T11:50:46.577Z,37.07
2018-08-07T11:51:48.357Z,37.08
2018-08-07T11:53:47.934Z,37.07
2018-08-07T11:54:47.398Z,37.05
2018-08-07T11:55:48.354Z,37.16
2018-08-07T11:56:47.728Z,37.37
2018-08-07T11:57:47.934Z,37.35
2018-08-07T11:58:48.149Z,37.39
2018-08-07T11:59:48.347Z,37.60
2018-08-07T12:00:48.551Z,37.61
2018-08-07T12:01:48.760Z,37.79
2018-08-07T12:02:48.972Z,37.80
2018-08-07T12:03:49.165Z,37.69
2018-08-07T12:04:49.436Z,37.92
2018-08-07T12:05:49.509Z,38.10
2018-08-07T12:06:49.705Z,38.30
2018-08-07T12:07:49.951Z,38.41
2018-08-07T12:08:50.860Z,38.20
2018-08-07T12:09:50.291Z,38.22
2018-08-07T12:10:50.555Z,38.02
2018-08-07T12:11:50.753Z,37.92
2018-08-07T12:12:50.990Z,37.85
2018-08-07T12:13:51.248Z,37.85
2018-08-07T12:14:51.351Z,37.98
2018-08-07T12:15:51.588Z,37.94
2018-08-07T12:16:51.756Z,37.87
2018-08-07T12:17:54.502Z,37.83
2018-08-07T12:18:52.066Z,37.91
2018-08-07T12:19:52.299Z,37.99
2018-08-07T12:20:53.423Z,38.17
2018-08-07T12:21:53.431Z,38.25
2018-08-07T12:22:52.946Z,38.23
2018-08-07T12:23:53.041Z,38.18
2018-08-07T12:24:53.227Z,38.16
2018-08-07T12:25:53.429Z,37.89
2018-08-07T12:26:53.640Z,37.92
2018-08-07T12:27:53.834Z,37.70
2018-08-07T12:28:54.067Z,37.38
2018-08-07T12:29:54.253Z,37.23
2018-08-07T12:30:54.510Z,37.34
2018-08-07T12:31:55.378Z,37.20
2018-08-07T12:32:54.792Z,37.31
2018-08-07T12:33:54.928Z,37.26
2018-08-07T12:34:55.126Z,37.17
2018-08-07T12:35:55.943Z,37.15
2018-08-07T12:36:55.507Z,37.07
2018-08-07T12:37:55.708Z,36.88
2018-08-07T12:38:55.933Z,36.57
2018-08-07T12:39:56.943Z,36.70
2018-08-07T12:40:56.356Z,36.97
2018-08-07T12:41:56.598Z,36.83
2018-08-07T12:42:56.813Z,36.89
2018-08-07T12:43:57.022Z,37.13
2018-08-07T12:44:57.235Z,37.27
2018-08-07T12:45:57.436Z,37.38
2018-08-07T12:46:57.662Z,37.39
2018-08-07T12:47:57.875Z,37.55
2018-08-07T12:48:58.065Z,37.39
2018-08-07T12:50:01.979Z,37.25
2018-08-07T12:50:59.419Z,37.13
2018-08-07T12:51:58.703Z,36.96
2018-08-07T12:52:59.884Z,36.98
2018-08-07T12:53:59.125Z,37.04
2018-08-07T12:54:59.331Z,37.07
2018-08-07T12:56:02.897Z,37.19
2018-08-07T12:56:59.738Z,37.31
2018-08-07T12:58:00.885Z,37.55
2018-08-07T12:59:00.199Z,37.67
2018-08-07T13:00:00.430Z,37.91
2018-08-07T13:01:00.597Z,37.69
2018-08-07T13:02:00.786Z,37.89
2018-08-07T13:03:00.984Z,37.95
2018-08-07T13:04:01.182Z,38.01
2018-08-07T13:05:01.371Z,37.96
2018-08-07T13:06:02.445Z,37.47
2018-08-07T13:07:01.823Z,37.50
2018-08-07T13:08:02.009Z,37.25
2018-08-07T13:09:02.198Z,37.20
2018-08-07T13:10:02.386Z,37.15
2018-08-07T13:11:02.620Z,37.00
2018-08-07T13:12:02.801Z,37.01
2018-08-07T13:13:03.026Z,37.04
2018-08-07T13:14:04.416Z,37.15
2018-08-07T13:15:03.472Z,37.15
2018-08-07T13:16:03.689Z,37.17
2018-08-07T13:17:03.865Z,37.19
2018-08-07T13:18:04.919Z,37.22
2018-08-07T13:19:04.306Z,37.17
2018-08-07T13:20:04.501Z,37.34
2018-08-07T13:21:04.756Z,37.19
2018-08-07T13:22:04.860Z,37.16
2018-08-07T13:23:05.104Z,37.07